createdAt,value
2023-05-11T00:01:10.246Z,2.30
2023-05-11T00:03:40.931Z,2.83
2023-05-11T00:06:11.729Z,2.60
2023-05-11T00:08:42.178Z,2.37
2023-05-11T00:11:12.682Z,2.30
2023-05-11T00:13:42.907Z,1.73
2023-05-11T00:16:15.739Z,2.60
2023-05-11T00:18:46.243Z,2.30
2023-05-11T00:21:16.554Z,2.27
2023-05-11T00:23:46.763Z,1.77
2023-05-11T00:26:17.048Z,2.67
2023-05-11T00:28:48.353Z,2.13
2023-05-11T00:31:21.513Z,2.50
2023-05-11T00:33:52.101Z,2.70
2023-05-11T00:36:22.428Z,2.47
2023-05-11T00:38:53.095Z,2.67
2023-05-11T00:41:23.286Z,2.53
2023-05-11T00:43:53.523Z,2.47
2023-05-11T00:46:26.652Z,2.03
2023-05-11T00:48:57.114Z,2.07
2023-05-11T00:51:28.091Z,2.20
2023-05-11T00:53:58.788Z,3.53
2023-05-11T00:56:29.320Z,2.17
2023-05-11T00:59:00.013Z,2.13
2023-05-11T01:01:33.090Z,1.90
2023-05-11T01:04:03.287Z,2.27
2023-05-11T01:06:47.874Z,1.73
2023-05-11T01:09:35.276Z,3.07
2023-05-11T01:12:18.434Z,2.10
2023-05-11T01:15:00.949Z,2.70
2023-05-11T01:17:50.269Z,1.70
2023-05-11T01:20:29.055Z,2.00
2023-05-11T01:23:53.050Z,2.20
2023-05-11T01:26:46.678Z,2.30
2023-05-11T01:30:04.146Z,2.17
2023-05-11T01:32:42.327Z,1.90
2023-05-11T01:35:22.406Z,1.80
2023-05-11T01:37:58.190Z,2.13
2023-05-11T01:40:36.726Z,2.10
2023-05-11T01:43:12.498Z,2.43
2023-05-11T01:45:51.423Z,2.30
2023-05-11T01:48:31.009Z,2.03
2023-05-11T01:51:06.124Z,2.00
2023-05-11T01:53:41.203Z,2.00
2023-05-11T01:56:15.060Z,2.10
2023-05-11T01:58:47.615Z,2.53
2023-05-11T02:01:22.602Z,2.00
2023-05-11T02:03:58.298Z,2.23
2023-05-11T02:06:32.140Z,2.90
2023-05-11T02:09:05.561Z,2.10
2023-05-11T02:11:39.828Z,3.13
2023-05-11T02:14:12.972Z,5.07
2023-05-11T02:16:44.476Z,4.93
2023-05-11T02:19:17.814Z,3.80
2023-05-11T02:21:50.149Z,3.13
2023-05-11T02:24:22.498Z,3.00
2023-05-11T02:26:53.380Z,3.07
2023-05-11T02:29:23.849Z,2.50
2023-05-11T02:32:05.798Z,2.63
2023-05-11T02:34:45.562Z,2.77
2023-05-11T02:37:24.331Z,3.20
2023-05-11T02:40:02.558Z,3.03
2023-05-11T02:42:42.139Z,3.03
2023-05-11T02:45:17.341Z,2.53
2023-05-11T02:47:56.624Z,2.07
2023-05-11T02:50:34.517Z,2.20
2023-05-11T02:53:12.248Z,2.57
2023-05-11T02:55:43.290Z,2.40
2023-05-11T02:58:14.375Z,2.30
2023-05-11T03:00:48.921Z,2.43
2023-05-11T03:03:19.595Z,2.30
2023-05-11T03:05:52.441Z,2.53
2023-05-11T03:08:22.918Z,2.27
2023-05-11T03:10:55.933Z,1.90
2023-05-11T03:13:28.787Z,2.43
2023-05-11T03:16:00.920Z,1.80
2023-05-11T03:18:34.111Z,2.30
2023-05-11T03:21:09.845Z,2.10
2023-05-11T03:23:42.499Z,2.00
2023-05-11T03:26:15.153Z,1.90
2023-05-11T03:28:47.826Z,1.63
2023-05-11T03:31:18.598Z,2.10
2023-05-11T03:33:49.174Z,1.97
2023-05-11T03:36:23.111Z,2.37
2023-05-11T03:38:56.689Z,2.40
2023-05-11T03:41:31.533Z,3.60
2023-05-11T03:44:06.099Z,1.90
2023-05-11T03:46:42.847Z,1.70
2023-05-11T03:49:15.774Z,1.70
2023-05-11T03:51:50.033Z,2.07
2023-05-11T03:54:20.493Z,2.50
2023-05-11T03:56:51.209Z,2.20
2023-05-11T03:59:24.110Z,1.90
2023-05-11T04:01:55.993Z,1.63
2023-05-11T04:04:32.735Z,2.03
2023-05-11T04:07:06.902Z,2.13
2023-05-11T04:09:37.190Z,2.10
2023-05-11T04:12:08.178Z,1.97
2023-05-11T04:14:38.401Z,2.33
2023-05-11T04:17:08.645Z,2.17
2023-05-11T04:19:38.869Z,2.37
2023-05-11T04:22:12.373Z,2.30
2023-05-11T04:24:42.639Z,2.60
2023-05-11T04:27:12.891Z,1.67
2023-05-11T04:29:43.181Z,2.40
2023-05-11T04:32:14.065Z,2.50
2023-05-11T04:34:44.463Z,2.80
2023-05-11T04:37:17.799Z,2.33
2023-05-11T04:39:48.083Z,2.57
2023-05-11T04:42:18.618Z,2.60
2023-05-11T04:44:56.073Z,2.73
2023-05-11T04:47:26.496Z,3.60
2023-05-11T04:49:57.183Z,2.70
2023-05-11T04:52:30.316Z,2.80
2023-05-11T04:55:00.518Z,3.10
2023-05-11T04:57:30.941Z,2.80
2023-05-11T05:00:01.734Z,2.70
2023-05-11T05:02:32.065Z,2.50
2023-05-11T05:05:02.329Z,2.83
2023-05-11T05:07:35.181Z,2.07
2023-05-11T05:10:09.147Z,2.47
2023-05-11T05:12:39.682Z,2.23
2023-05-11T05:15:11.769Z,2.90
2023-05-11T05:17:42.040Z,2.47
2023-05-11T05:20:13.278Z,2.50
2023-05-11T05:22:46.098Z,2.27
2023-05-11T05:25:17.010Z,2.50
2023-05-11T05:27:47.224Z,3.63
2023-05-11T05:30:22.099Z,3.00
2023-05-11T05:32:52.724Z,2.37
2023-05-11T05:35:24.205Z,2.30
2023-05-11T05:37:57.120Z,2.43
2023-05-11T05:40:27.515Z,2.70
2023-05-11T05:42:59.506Z,2.40
2023-05-11T05:45:29.733Z,2.93
2023-05-11T05:48:00.539Z,4.83
2023-05-11T05:50:31.243Z,3.00
2023-05-11T05:53:04.399Z,2.40
2023-05-11T05:55:35.319Z,2.70
2023-05-11T05:58:08.358Z,3.20
2023-05-11T06:00:38.994Z,2.77
2023-05-11T06:03:12.791Z,2.77
2023-05-11T06:05:43.078Z,2.30
2023-05-11T06:08:16.436Z,3.00
2023-05-11T06:10:46.713Z,2.37
2023-05-11T06:13:17.229Z,2.83
2023-05-11T06:15:48.131Z,2.80
2023-05-11T06:18:29.080Z,2.37
2023-05-11T06:21:00.142Z,2.60
2023-05-11T06:23:34.667Z,2.70
2023-05-11T06:26:05.497Z,3.57
2023-05-11T06:28:36.552Z,2.57
2023-05-11T06:31:11.968Z,2.83
2023-05-11T06:33:43.857Z,2.80
2023-05-11T06:36:22.768Z,2.60
2023-05-11T06:38:55.704Z,2.40
2023-05-11T06:41:26.250Z,2.83
2023-05-11T06:43:56.619Z,3.40
2023-05-11T06:46:31.866Z,3.03
2023-05-11T06:49:02.350Z,3.10
2023-05-11T06:51:33.679Z,2.90
2023-05-11T06:54:06.704Z,3.23
2023-05-11T06:56:38.367Z,2.80
2023-05-11T06:59:08.580Z,2.90
2023-05-11T07:01:38.836Z,3.37
2023-05-11T07:04:09.288Z,3.13
2023-05-11T07:06:39.518Z,3.80
2023-05-11T07:09:12.801Z,3.30
2023-05-11T07:11:43.049Z,3.13
2023-05-11T07:14:13.307Z,3.40
2023-05-11T07:16:43.579Z,2.87
2023-05-11T07:19:13.903Z,4.30
2023-05-11T07:21:44.217Z,3.00
2023-05-11T07:24:17.139Z,2.40
2023-05-11T07:26:47.413Z,2.87
2023-05-11T07:29:17.624Z,3.30
2023-05-11T07:31:48.539Z,3.53
2023-05-11T07:34:19.111Z,3.73
2023-05-11T07:36:49.360Z,3.93
2023-05-11T07:39:22.286Z,3.13
2023-05-11T07:41:52.501Z,3.67
2023-05-11T07:44:22.730Z,4.30
2023-05-11T07:46:52.981Z,4.20
2023-05-11T07:49:31.338Z,4.00
2023-05-11T07:52:12.952Z,4.40
2023-05-11T07:54:46.322Z,4.20
2023-05-11T07:57:16.554Z,4.37
2023-05-11T07:59:46.785Z,3.90
2023-05-11T08:02:19.229Z,4.67
2023-05-11T08:04:49.843Z,3.80
2023-05-11T08:07:20.158Z,3.50
2023-05-11T08:09:53.052Z,4.00
2023-05-11T08:12:23.332Z,4.30
2023-05-11T08:14:53.597Z,4.03
2023-05-11T08:17:24.038Z,3.37
2023-05-11T08:19:54.401Z,3.70
2023-05-11T08:22:25.094Z,4.23
2023-05-11T08:24:57.908Z,3.70
2023-05-11T08:27:28.149Z,3.80
2023-05-11T08:29:58.589Z,4.73
2023-05-11T08:32:29.648Z,3.53
2023-05-11T08:35:00.518Z,4.70
2023-05-11T08:37:30.839Z,4.23
2023-05-11T08:40:04.018Z,4.10
2023-05-11T08:42:37.599Z,4.43
2023-05-11T08:45:10.856Z,5.07
2023-05-11T08:47:41.654Z,3.60
2023-05-11T08:50:13.458Z,4.17
2023-05-11T08:52:44.424Z,3.60
2023-05-11T08:55:17.421Z,4.90
2023-05-11T08:57:49.720Z,4.07
2023-05-11T09:00:21.248Z,3.93
2023-05-11T09:02:52.624Z,4.30
2023-05-11T09:05:23.472Z,4.47
2023-05-11T09:07:58.209Z,4.53
2023-05-11T09:10:31.149Z,3.83
2023-05-11T09:13:01.491Z,4.00
2023-05-11T09:15:36.895Z,3.47
2023-05-11T09:18:08.797Z,4.20
2023-05-11T09:20:39.080Z,3.67
2023-05-11T09:23:10.855Z,2.87
2023-05-11T09:25:43.772Z,3.40
2023-05-11T09:28:24.957Z,3.90
2023-05-11T09:30:57.201Z,3.43
2023-05-11T09:33:29.002Z,4.33
2023-05-11T09:35:59.797Z,5.00
2023-05-11T09:38:30.196Z,4.80
2023-05-11T09:41:05.038Z,4.33
2023-05-11T09:43:35.297Z,4.90
2023-05-11T09:46:07.955Z,4.77
2023-05-11T09:48:38.332Z,4.37
2023-05-11T09:51:10.915Z,4.20
2023-05-11T09:53:45.730Z,6.50
2023-05-11T09:56:18.966Z,4.90
2023-05-11T09:58:52.185Z,4.87
2023-05-11T10:01:33.299Z,5.57
2023-05-11T10:04:17.995Z,6.60
2023-05-11T10:06:54.799Z,5.00
2023-05-11T10:09:28.680Z,6.80
2023-05-11T10:12:02.743Z,5.70
2023-05-11T10:14:35.490Z,5.43
2023-05-11T10:17:07.576Z,4.80
2023-05-11T10:19:38.096Z,5.40
2023-05-11T10:22:09.523Z,5.53
2023-05-11T10:24:41.815Z,6.10
2023-05-11T10:27:16.045Z,5.63
2023-05-11T10:29:47.638Z,5.77
2023-05-11T10:32:20.865Z,7.13
2023-05-11T10:34:52.023Z,6.73
2023-05-11T10:37:22.298Z,7.37
2023-05-11T10:39:52.826Z,7.60
2023-05-11T10:43:04.342Z,7.13
2023-05-11T10:45:52.206Z,6.17
2023-05-11T10:48:57.386Z,5.17
2023-05-11T10:51:55.857Z,5.20
2023-05-11T10:54:45.527Z,6.60
2023-05-11T10:58:04.412Z,6.40
2023-05-11T11:01:20.991Z,7.30
2023-05-11T11:04:06.355Z,6.77
2023-05-11T11:06:37.979Z,5.57
2023-05-11T11:09:13.135Z,5.77
2023-05-11T11:11:46.640Z,6.50
2023-05-11T11:14:21.557Z,6.20
2023-05-11T11:17:25.240Z,6.73
2023-05-11T11:19:56.092Z,6.10
2023-05-11T11:22:49.992Z,5.07
2023-05-11T11:25:56.572Z,3.80
2023-05-11T11:28:26.895Z,4.60
2023-05-11T11:31:30.332Z,5.10
2023-05-11T11:34:03.970Z,3.63
2023-05-11T11:37:08.785Z,3.20
2023-05-11T11:40:09.522Z,3.70
2023-05-11T11:42:46.156Z,3.50
2023-05-11T11:45:37.138Z,3.17
2023-05-11T11:48:26.979Z,2.47
2023-05-11T11:51:06.561Z,2.33
2023-05-11T11:54:09.956Z,2.93
2023-05-11T11:56:47.744Z,2.00
2023-05-11T11:59:19.114Z,2.83
2023-05-11T12:01:55.476Z,2.70
2023-05-11T12:04:58.894Z,2.67
2023-05-11T12:07:35.929Z,2.20
2023-05-11T12:10:07.131Z,2.60
2023-05-11T12:12:41.179Z,2.23
2023-05-11T12:15:25.044Z,2.37
2023-05-11T12:17:55.661Z,2.70
2023-05-11T12:20:28.600Z,1.90
2023-05-11T12:22:58.992Z,2.10
2023-05-11T12:25:29.453Z,2.20
2023-05-11T12:28:02.402Z,1.77
2023-05-11T12:30:35.569Z,2.23
2023-05-11T12:33:06.572Z,2.03
2023-05-11T12:35:40.555Z,2.60
2023-05-11T12:38:14.575Z,2.63
2023-05-11T12:40:51.489Z,6.83
2023-05-11T12:43:25.962Z,2.97
2023-05-11T12:45:56.358Z,2.77
2023-05-11T12:48:26.917Z,2.43
2023-05-11T12:50:59.714Z,1.70
2023-05-11T12:53:29.936Z,2.00
2023-05-11T12:56:04.470Z,1.77
2023-05-11T12:58:41.960Z,2.27
2023-05-11T13:01:14.362Z,2.27
2023-05-11T13:03:50.282Z,1.53
2023-05-11T13:06:23.501Z,1.90
2023-05-11T13:08:54.067Z,1.90
2023-05-11T13:11:26.976Z,2.30
2023-05-11T13:13:59.795Z,2.60
2023-05-11T13:16:31.575Z,2.20
2023-05-11T13:19:03.528Z,3.03
2023-05-11T13:21:36.701Z,2.33
2023-05-11T13:24:08.204Z,2.27
2023-05-11T13:26:38.525Z,2.23
2023-05-11T13:29:11.282Z,2.00
2023-05-11T13:31:47.160Z,2.03
2023-05-11T13:34:17.807Z,1.80
2023-05-11T13:36:50.947Z,1.60
2023-05-11T13:39:21.164Z,1.77
2023-05-11T13:41:52.651Z,1.93
2023-05-11T13:44:24.018Z,1.83
2023-05-11T13:46:55.526Z,2.00
2023-05-11T13:49:25.920Z,2.10
2023-05-11T13:52:00.113Z,2.53
2023-05-11T13:54:31.958Z,2.20
2023-05-11T13:57:03.385Z,1.60
2023-05-11T13:59:33.585Z,1.70
2023-05-11T14:02:03.986Z,1.63
2023-05-11T14:04:34.608Z,2.10
2023-05-11T14:07:08.052Z,2.00
2023-05-11T14:09:38.617Z,1.90
2023-05-11T14:12:09.784Z,2.20
2023-05-11T14:14:40.079Z,1.90
2023-05-11T14:17:10.707Z,2.10
2023-05-11T14:19:40.999Z,1.83
2023-05-11T14:22:13.861Z,1.90
2023-05-11T14:24:44.102Z,2.20
2023-05-11T14:27:14.356Z,1.60
2023-05-11T14:29:45.507Z,1.90
2023-05-11T14:32:15.954Z,1.90
2023-05-11T14:34:46.256Z,1.47
2023-05-11T14:37:19.016Z,2.20
2023-05-11T14:39:49.196Z,1.57
2023-05-11T14:42:19.482Z,1.60
2023-05-11T14:44:49.662Z,1.43
2023-05-11T14:47:20.040Z,2.00
2023-05-11T14:49:50.384Z,1.73
2023-05-11T14:52:23.208Z,2.47
2023-05-11T14:54:53.569Z,1.60
2023-05-11T14:57:23.788Z,1.73
2023-05-11T15:00:00.232Z,1.63
2023-05-11T15:02:31.835Z,2.00
2023-05-11T15:05:02.075Z,1.90
2023-05-11T15:07:35.202Z,1.80
2023-05-11T15:10:05.919Z,1.60
2023-05-11T15:12:36.129Z,1.80
2023-05-11T15:15:07.826Z,1.60
2023-05-11T15:17:38.046Z,1.63
2023-05-11T15:20:10.881Z,1.80
2023-05-11T15:22:43.692Z,1.60
2023-05-11T15:25:14.538Z,1.70
2023-05-11T15:27:44.878Z,2.60
2023-05-11T15:30:17.023Z,2.10
2023-05-11T15:32:47.366Z,2.17
2023-05-11T15:35:18.270Z,1.87
2023-05-11T15:37:51.319Z,1.77
2023-05-11T15:40:21.774Z,1.93
2023-05-11T15:42:51.995Z,1.90
2023-05-11T15:45:22.268Z,1.60
2023-05-11T15:47:52.565Z,1.70
2023-05-11T15:50:22.962Z,1.63
2023-05-11T15:52:56.535Z,1.90
2023-05-11T15:55:26.728Z,1.77
2023-05-11T15:57:56.926Z,1.73
2023-05-11T16:00:27.316Z,1.97
2023-05-11T16:02:57.600Z,2.00
2023-05-11T16:05:27.856Z,2.00
2023-05-11T16:08:00.665Z,2.40
2023-05-11T16:10:30.982Z,2.30
2023-05-11T16:13:01.268Z,1.53
2023-05-11T16:15:31.872Z,2.30
2023-05-11T16:18:04.652Z,2.30
2023-05-11T16:20:35.583Z,2.27
2023-05-11T16:23:08.744Z,2.23
2023-05-11T16:25:39.013Z,1.97
2023-05-11T16:28:09.221Z,2.30
2023-05-11T16:30:40.132Z,1.90
2023-05-11T16:33:10.458Z,2.70
2023-05-11T16:35:40.780Z,2.20
2023-05-11T16:38:19.965Z,1.83
2023-05-11T16:40:51.089Z,2.43
2023-05-11T16:43:21.303Z,2.77
2023-05-11T16:45:51.861Z,2.47
2023-05-11T16:48:22.179Z,3.00
2023-05-11T16:50:53.317Z,2.50
2023-05-11T16:53:27.379Z,2.60
2023-05-11T16:55:58.108Z,2.20
2023-05-11T16:58:30.145Z,2.27
2023-05-11T17:01:01.619Z,2.13
2023-05-11T17:03:32.911Z,2.00
2023-05-11T17:06:03.813Z,1.70
2023-05-11T17:08:36.765Z,1.80
2023-05-11T17:11:09.825Z,2.43
2023-05-11T17:13:40.148Z,4.10
2023-05-11T17:16:10.497Z,1.97
2023-05-11T17:18:40.908Z,2.50
2023-05-11T17:21:11.582Z,2.50
2023-05-11T17:23:45.212Z,2.30
2023-05-11T17:26:16.471Z,2.53
2023-05-11T17:28:46.848Z,1.97
2023-05-11T17:31:18.542Z,2.27
2023-05-11T17:33:48.931Z,2.60
2023-05-11T17:36:19.436Z,1.90
2023-05-11T17:38:53.731Z,2.37
2023-05-11T17:41:23.995Z,2.80
2023-05-11T17:43:54.370Z,2.70
2023-05-11T17:46:24.893Z,4.20
2023-05-11T17:48:55.418Z,4.03
2023-05-11T17:51:25.798Z,3.40
2023-05-11T17:53:58.601Z,2.77
2023-05-11T17:56:28.996Z,3.03
2023-05-11T17:58:59.253Z,2.97
2023-05-11T18:01:30.238Z,3.40
2023-05-11T18:04:04.638Z,3.50
2023-05-11T18:06:35.264Z,2.93
2023-05-11T18:09:09.305Z,2.87
2023-05-11T18:11:40.027Z,2.70
2023-05-11T18:14:11.166Z,2.70
2023-05-11T18:16:41.642Z,2.50
2023-05-11T18:19:11.895Z,2.50
2023-05-11T18:21:42.618Z,3.63
2023-05-11T18:24:17.832Z,3.57
2023-05-11T18:26:48.098Z,2.90
2023-05-11T18:29:20.342Z,3.63
2023-05-11T18:31:51.099Z,3.40
2023-05-11T18:34:21.567Z,3.30
2023-05-11T18:36:51.810Z,2.87
2023-05-11T18:39:24.771Z,3.37
2023-05-11T18:41:55.024Z,3.20
2023-05-11T18:44:25.666Z,3.73
2023-05-11T18:46:56.060Z,3.97
2023-05-11T18:49:26.526Z,3.80
2023-05-11T18:51:56.900Z,4.07
2023-05-11T18:54:29.816Z,3.10
2023-05-11T18:57:00.021Z,3.83
2023-05-11T18:59:30.372Z,4.10
2023-05-11T19:02:00.845Z,4.10
2023-05-11T19:04:31.198Z,4.60
2023-05-11T19:07:02.946Z,4.00
2023-05-11T19:09:35.769Z,3.80
2023-05-11T19:12:06.213Z,5.03
2023-05-11T19:14:37.623Z,4.40
2023-05-11T19:17:08.345Z,4.40
2023-05-11T19:19:38.601Z,4.50
2023-05-11T19:22:09.385Z,4.87
2023-05-11T19:24:42.470Z,4.57
2023-05-11T19:27:13.499Z,3.60
2023-05-11T19:29:43.759Z,4.10
2023-05-11T19:32:14.311Z,3.70
2023-05-11T19:34:44.529Z,4.37
2023-05-11T19:37:14.707Z,4.07
2023-05-11T19:39:47.549Z,3.90
2023-05-11T19:42:23.441Z,3.90
2023-05-11T19:44:58.981Z,3.93
2023-05-11T19:47:29.204Z,5.80
2023-05-11T19:49:59.403Z,4.93
2023-05-11T19:52:29.668Z,4.80
2023-05-11T19:55:02.533Z,4.10
2023-05-11T19:57:37.404Z,5.33
2023-05-11T20:00:10.291Z,4.90
2023-05-11T20:02:40.575Z,4.53
2023-05-11T20:05:11.695Z,5.27
2023-05-11T20:07:42.252Z,4.67
2023-05-11T20:10:15.758Z,5.57
2023-05-11T20:12:46.101Z,5.10
2023-05-11T20:15:16.351Z,4.93
2023-05-11T20:17:50.328Z,5.53
2023-05-11T20:20:20.966Z,4.77
2023-05-11T20:22:51.352Z,5.40
2023-05-11T20:25:24.863Z,5.40
2023-05-11T20:27:55.288Z,5.57
2023-05-11T20:30:26.158Z,5.30
2023-05-11T20:35:29.745Z,5.50
2023-05-11T20:38:00.014Z,6.07
2023-05-11T20:40:33.091Z,5.73
2023-05-11T20:43:03.848Z,5.20
2023-05-11T20:45:34.065Z,5.67
2023-05-11T20:48:04.366Z,5.37
2023-05-11T20:50:34.669Z,5.23
2023-05-11T20:53:05.416Z,5.10
2023-05-11T20:55:38.207Z,4.90
2023-05-11T20:58:09.133Z,6.30
2023-05-11T21:00:39.321Z,5.40
2023-05-11T21:03:09.630Z,5.63
2023-05-11T21:05:39.908Z,5.53
2023-05-11T21:08:10.369Z,6.07
2023-05-11T21:10:43.183Z,5.97
2023-05-11T21:13:13.992Z,4.97
2023-05-11T21:15:44.393Z,4.57
2023-05-11T21:18:14.732Z,5.00
2023-05-11T21:20:45.802Z,5.50
2023-05-11T21:23:16.249Z,5.90
2023-05-11T21:25:54.690Z,6.10
2023-05-11T21:28:25.508Z,6.10
2023-05-11T21:30:56.084Z,5.50
2023-05-11T21:33:26.416Z,5.03
2023-05-11T21:35:56.722Z,5.47
2023-05-11T21:38:27.308Z,5.33
2023-05-11T21:41:00.142Z,6.40
2023-05-11T21:43:30.309Z,6.10
2023-05-11T21:46:00.583Z,5.60
2023-05-11T21:48:30.927Z,6.57
2023-05-11T21:51:01.230Z,6.90
2023-05-11T21:53:31.410Z,6.40
2023-05-11T21:56:04.388Z,5.90
2023-05-11T21:58:34.597Z,6.73
2023-05-11T22:01:04.851Z,6.70
2023-05-11T22:03:35.182Z,6.73
2023-05-11T22:06:05.534Z,7.30
2023-05-11T22:08:35.977Z,6.23
2023-05-11T22:11:08.800Z,6.90
2023-05-11T22:13:39.003Z,6.63
2023-05-11T22:16:10.455Z,6.30
2023-05-11T22:18:40.713Z,6.20
2023-05-11T22:21:11.138Z,7.03
2023-05-11T22:23:41.954Z,6.50
2023-05-11T22:26:14.820Z,6.67
2023-05-11T22:28:45.399Z,6.30
2023-05-11T22:31:15.572Z,5.87
2023-05-11T22:33:46.112Z,6.50
2023-05-11T22:36:16.323Z,6.17
2023-05-11T22:38:46.679Z,6.50
2023-05-11T22:41:19.633Z,6.47
2023-05-11T22:43:50.752Z,6.83
2023-05-11T22:46:21.057Z,6.60
2023-05-11T22:48:51.314Z,6.87
2023-05-11T22:51:21.538Z,6.53
2023-05-11T22:53:52.316Z,6.80
2023-05-11T22:56:25.188Z,6.90
2023-05-11T22:58:57.292Z,6.50
2023-05-11T23:01:27.846Z,7.00
2023-05-11T23:03:58.319Z,6.33
2023-05-11T23:06:28.816Z,6.60
2023-05-11T23:08:59.030Z,5.70
2023-05-11T23:11:31.969Z,7.00
2023-05-11T23:14:04.059Z,6.57
2023-05-11T23:16:34.355Z,19.43
2023-05-11T23:19:04.935Z,14.60
2023-05-11T23:21:35.443Z,23.93
2023-05-11T23:24:05.802Z,8.30
2023-05-11T23:26:39.829Z,7.03
2023-05-11T23:29:10.626Z,6.90
2023-05-11T23:31:41.229Z,7.07
2023-05-11T23:34:11.638Z,7.07
2023-05-11T23:36:42.247Z,6.40
2023-05-11T23:39:13.088Z,7.23
2023-05-11T23:41:46.173Z,7.93
2023-05-11T23:44:17.663Z,8.07
2023-05-11T23:46:48.127Z,8.27
2023-05-11T23:49:19.156Z,7.10
2023-05-11T23:51:49.712Z,7.57
2023-05-11T23:54:20.133Z,7.13
2023-05-11T23:56:53.339Z,7.57
2023-05-11T23:59:23.930Z,6.83
